Time;durP1;ratioP1;P1;durP2;ratioP2;P2;SDS_P1;SDS_P2;PMS_P1;PMS_P2;Temp;Humidity;BMP_temperature;BMP_pressure;BME280_temperature;BME280_humidity;BME280_pressure;Samples;Min_cycle;Max_cycle;Signal;HPM_P1;HPM_P2
2021/10/13 00:00:42;;;;;;;2.70;0.90;;;;;;;3.63;94.23;100497.75;5109353;28;19926;-73
2021/10/13 00:03:27;;;;;;;2.50;0.88;;;;;;;3.73;93.48;100496.25;5109896;28;20046;-72
2021/10/13 00:06:12;;;;;;;3.55;1.10;;;;;;;3.83;93.87;100493.88;5108357;28;20117;-73
2021/10/13 00:08:57;;;;;;;6.00;1.50;;;;;;;3.65;94.21;100502.00;5113034;28;20054;-75
2021/10/13 00:11:44;;;;;;;2.47;1.08;;;;;;;3.65;94.21;100506.47;5109976;28;20058;-73
2021/10/13 00:14:29;;;;;;;2.97;1.05;;;;;;;3.47;93.34;100511.94;5105027;28;20051;-74
2021/10/13 00:17:14;;;;;;;2.75;1.10;;;;;;;3.42;94.81;100510.50;5110407;28;20062;-76
2021/10/13 00:19:59;;;;;;;2.25;1.30;;;;;;;3.46;94.06;100509.41;5110120;28;20061;-74
2021/10/13 00:22:44;;;;;;;4.13;1.00;;;;;;;3.62;94.28;100512.81;5110613;28;20149;-76
2021/10/13 00:25:29;;;;;;;2.90;1.10;;;;;;;3.42;94.05;100519.31;5103220;28;20120;-75
2021/10/13 00:28:16;;;;;;;5.25;1.20;;;;;;;3.68;93.31;100517.78;5109936;28;20307;-76
2021/10/13 00:31:02;;;;;;;2.65;1.10;;;;;;;3.50;94.32;100519.72;5111540;28;20080;-74
2021/10/13 00:33:47;;;;;;;3.07;1.20;;;;;;;3.28;94.09;100516.63;5110021;28;20108;-75
2021/10/13 00:36:32;;;;;;;3.40;1.17;;;;;;;3.56;93.74;100523.81;5110013;28;20050;-74
2021/10/13 00:39:18;;;;;;;3.72;0.90;;;;;;;3.64;93.71;100521.53;5111233;28;20050;-74
2021/10/13 00:42:03;;;;;;;;;;;;;;;3.43;94.55;100520.16;5104427;28;20054;-74
2021/10/13 00:44:50;;;;;;;4.32;0.98;;;;;;;3.55;94.03;100514.13;5109359;28;19927;-70
2021/10/13 00:47:36;;;;;;;1.83;0.90;;;;;;;3.46;94.66;100522.66;5107308;28;20164;-76
2021/10/13 00:50:22;;;;;;;3.97;1.40;;;;;;;3.50;93.44;100524.19;5109485;28;20050;-76
2021/10/13 00:53:07;;;;;;;3.35;1.30;;;;;;;3.50;94.75;100525.03;5099636;28;20105;-73
2021/10/13 00:55:53;;;;;;;1.48;0.95;;;;;;;3.43;94.22;100523.72;5110779;28;20189;-75
2021/10/13 00:58:38;;;;;;;2.30;1.03;;;;;;;3.29;94.89;100526.31;5103845;28;20054;-76
2021/10/13 01:01:30;;;;;;;3.22;1.52;;;;;;;3.17;94.95;100533.19;5108378;28;20262;-77
2021/10/13 01:04:34;;;;;;;4.30;1.02;;;;;;;3.15;95.71;100529.78;5105746;28;20132;-74
2021/10/13 01:07:29;;;;;;;1.98;1.08;;;;;;;3.10;95.82;100531.00;5105324;28;20120;-74
2021/10/13 01:10:22;;;;;;;3.38;1.25;;;;;;;3.23;95.80;100537.28;5105762;28;20555;-77
2021/10/13 01:13:13;;;;;;;2.35;1.48;;;;;;;3.05;95.95;100538.34;5107947;28;20051;-76
2021/10/13 01:16:09;;;;;;;5.32;1.65;;;;;;;3.18;97.13;100534.91;5109859;28;20083;-73
2021/10/13 01:19:00;;;;;;;2.00;1.02;;;;;;;3.12;95.92;100540.56;5106778;28;20104;-75
2021/10/13 01:21:59;;;;;;;1.75;1.05;;;;;;;3.06;96.20;100532.97;5103590;28;20468;-75
2021/10/13 01:25:02;;;;;;;4.43;1.10;;;;;;;3.09;96.13;100538.09;5111008;28;20047;-78
2021/10/13 01:27:54;;;;;;;4.15;1.55;;;;;;;3.37;94.67;100536.47;5109684;28;20097;-73
2021/10/13 01:30:44;;;;;;;1.70;0.98;;;;;;;3.25;96.10;100539.84;5109675;28;20512;-74
2021/10/13 01:33:36;;;;;;;5.65;1.30;;;;;;;3.21;96.10;100540.03;5107934;28;20050;-74
2021/10/13 01:36:41;;;;;;;4.32;1.50;;;;;;;2.98;94.99;100543.19;5105004;28;20096;-75
2021/10/13 01:39:27;;;;;;;2.67;1.13;;;;;;;2.83;96.11;100538.72;5103810;28;20618;-73
2021/10/13 01:42:17;;;;;;;1.90;0.95;;;;;;;2.82;97.21;100548.50;5109578;28;20101;-76
2021/10/13 01:45:04;;;;;;;3.17;1.02;;;;;;;2.77;97.01;100552.34;5108470;28;20069;-75
2021/10/13 01:47:52;;;;;;;7.82;1.52;;;;;;;2.79;97.20;100548.66;5104878;27;20511;-75
2021/10/13 01:50:38;;;;;;;2.80;1.35;;;;;;;2.96;96.64;100560.09;5103888;27;20136;-75
2021/10/13 01:53:26;;;;;;;3.03;1.17;;;;;;;2.77;96.40;100565.59;5120983;27;20050;-72
2021/10/13 01:56:13;;;;;;;2.40;1.17;;;;;;;2.87;96.22;100564.16;5109664;28;20047;-74
2021/10/13 01:59:01;;;;;;;4.63;0.90;;;;;;;2.85;96.53;100566.03;5110511;28;20503;-74
2021/10/13 02:01:50;;;;;;;2.22;1.10;;;;;;;2.67;97.17;100572.38;5107234;28;20062;-73
2021/10/13 02:04:39;;;;;;;3.45;1.33;;;;;;;2.79;97.13;100574.31;5102181;28;20051;-73
2021/10/13 02:07:27;;;;;;;3.17;1.27;;;;;;;2.57;97.56;100569.38;5102158;28;20054;-75
2021/10/13 02:10:13;;;;;;;3.70;1.10;;;;;;;2.55;96.84;100582.72;5099035;22;20417;-59
2021/10/13 02:13:00;;;;;;;1.67;1.02;;;;;;;2.55;97.72;100579.19;5067142;28;20055;-59
2021/10/13 02:15:46;;;;;;;2.67;1.55;;;;;;;2.62;97.18;100575.28;5085596;28;20055;-59
2021/10/13 02:18:34;;;;;;;2.17;0.93;;;;;;;2.60;97.86;100575.38;5084559;28;20051;-61
2021/10/13 02:21:21;;;;;;;4.75;1.40;;;;;;;2.58;97.35;100577.22;5078540;28;20137;-62
2021/10/13 02:24:08;;;;;;;3.55;1.27;;;;;;;2.61;97.34;100576.22;5089552;28;20581;-61
2021/10/13 02:26:57;;;;;;;2.10;1.20;;;;;;;2.44;97.53;100571.84;5087078;28;20051;-58
2021/10/13 02:29:44;;;;;;;2.90;1.35;;;;;;;2.24;97.73;100574.72;5088568;28;20524;-60
2021/10/13 02:32:29;;;;;;;;;;;;;;;2.35;98.10;100581.13;5084254;28;20122;-59
2021/10/13 02:35:15;;;;;;;2.65;1.30;;;;;;;2.47;98.11;100584.91;5088268;28;19943;-58
2021/10/13 02:38:00;;;;;;;;;;;;;;;2.34;98.32;100590.03;5089530;28;20055;-57
2021/10/13 02:40:45;;;;;;;2.67;1.23;;;;;;;2.37;98.38;100593.44;5085144;28;19927;-58
2021/10/13 02:43:30;;;;;;;2.90;1.25;;;;;;;2.40;98.64;100591.50;5088601;28;20178;-58
2021/10/13 02:46:22;;;;;;;2.10;1.25;;;;;;;2.41;98.67;100595.88;5082882;28;20047;-56
2021/10/13 02:49:18;;;;;;;2.65;1.40;;;;;;;2.64;98.48;100602.56;5087089;28;20055;-60
2021/10/13 02:52:13;;;;;;;2.53;1.40;;;;;;;2.59;98.41;100599.28;5088577;28;20055;-61
2021/10/13 02:55:01;;;;;;;3.80;1.33;;;;;;;2.62;98.02;100594.69;5088231;28;20051;-59
2021/10/13 02:57:53;;;;;;;5.50;1.73;;;;;;;2.57;97.97;100607.31;5078317;28;20059;-61
2021/10/13 03:00:40;;;;;;;1.75;1.02;;;;;;;2.51;98.63;100607.69;5085237;28;20060;-60
2021/10/13 03:03:33;;;;;;;3.05;1.75;;;;;;;2.70;98.54;100609.28;5088560;28;20302;-60
2021/10/13 03:06:19;;;;;;;3.45;2.05;;;;;;;2.56;98.03;100613.56;5073480;28;20162;-57
2021/10/13 03:09:06;;;;;;;5.25;2.00;;;;;;;2.64;98.89;100611.34;5088071;28;20063;-61
2021/10/13 03:11:53;;;;;;;5.07;1.73;;;;;;;2.67;97.89;100617.41;5091662;28;20117;-62
2021/10/13 03:14:39;;;;;;;4.50;2.20;;;;;;;2.44;98.37;100619.53;5091076;28;20063;-58
2021/10/13 03:17:25;;;;;;;3.13;1.70;;;;;;;2.52;98.07;100614.69;5073257;28;20056;-62
2021/10/13 03:20:12;;;;;;;6.27;1.90;;;;;;;2.45;98.44;100623.88;5091770;28;20055;-56
2021/10/13 03:23:00;;;;;;;5.68;1.80;;;;;;;2.51;98.34;100628.00;5080808;28;20308;-57
2021/10/13 03:25:48;;;;;;;3.17;1.73;;;;;;;2.76;98.02;100625.72;5091145;28;20050;-58
2021/10/13 03:28:34;;;;;;;5.47;2.42;;;;;;;2.91;97.76;100626.66;5090182;28;20413;-59
2021/10/13 03:31:19;;;;;;;4.78;2.17;;;;;;;2.85;96.92;100627.00;5086185;28;20425;-58
2021/10/13 03:34:04;;;;;;;5.72;2.63;;;;;;;2.82;97.18;100624.50;5089693;28;20055;-61
2021/10/13 03:36:51;;;;;;;6.90;2.22;;;;;;;3.00;97.54;100636.75;5068456;28;20060;-59
2021/10/13 03:39:36;;;;;;;;;;;;;;;3.02;96.19;100637.50;5064313;28;20052;-59
2021/10/13 03:42:22;;;;;;;3.30;1.83;;;;;;;2.91;97.03;100637.25;5090893;28;19931;-58
2021/10/13 03:45:11;;;;;;;5.03;2.55;;;;;;;2.89;95.98;100634.69;5091197;28;20055;-61
2021/10/13 03:47:56;;;;;;;6.20;2.30;;;;;;;2.81;96.61;100636.91;5090227;28;20505;-61
2021/10/13 03:50:41;;;;;;;3.00;1.83;;;;;;;2.60;97.48;100649.56;5081667;28;20094;-62
2021/10/13 03:53:26;;;;;;;4.45;2.08;;;;;;;2.63;97.31;100648.53;5071982;28;20064;-61
2021/10/13 03:56:12;;;;;;;5.38;2.60;;;;;;;2.90;96.98;100654.09;5077158;28;20066;-62
2021/10/13 03:58:58;;;;;;;7.50;2.67;;;;;;;2.84;97.42;100651.78;5083949;28;20116;-62
2021/10/13 04:01:43;;;;;;;6.13;2.50;;;;;;;2.70;97.26;100657.00;5091562;28;20055;-62
2021/10/13 04:04:28;;;;;;;5.10;2.28;;;;;;;2.56;97.59;100655.09;5087661;28;20058;-61
2021/10/13 04:07:13;;;;;;;6.00;2.70;;;;;;;2.61;97.24;100653.94;5088122;28;20051;-62
2021/10/13 04:09:58;;;;;;;6.72;3.42;;;;;;;2.60;97.80;100656.63;5090741;28;20059;-61
2021/10/13 04:12:43;;;;;;;5.80;2.83;;;;;;;2.50;98.07;100663.41;5090319;28;20055;-63
2021/10/13 04:15:29;;;;;;;5.85;2.67;;;;;;;2.66;97.44;100671.38;5089006;28;20815;-62
2021/10/13 04:18:15;;;;;;;4.15;2.38;;;;;;;2.56;97.94;100674.50;5064599;28;20178;-61
2021/10/13 04:21:00;;;;;;;5.35;2.92;;;;;;;2.56;97.16;100677.16;5082818;28;20110;-60
2021/10/13 04:23:45;;;;;;;7.38;3.20;;;;;;;2.40;97.17;100678.06;5080961;28;20047;-62
2021/10/13 04:26:30;;;;;;;6.40;2.97;;;;;;;2.53;97.97;100682.63;5088618;28;20144;-60
2021/10/13 04:29:15;;;;;;;6.70;3.08;;;;;;;2.35;98.20;100673.84;5090899;28;20190;-60
2021/10/13 04:32:02;;;;;;;10.83;3.77;;;;;;;2.67;98.35;100676.59;5085733;28;20063;-61
2021/10/13 04:34:48;;;;;;;6.32;2.70;;;;;;;2.46;97.94;100683.88;5078495;28;20167;-60
2021/10/13 04:37:33;;;;;;;6.00;3.33;;;;;;;2.40;98.10;100686.03;5088376;28;20047;-62
2021/10/13 04:40:19;;;;;;;7.53;3.60;;;;;;;2.28;98.28;100682.22;5079910;28;20059;-60
2021/10/13 04:43:04;;;;;;;8.98;3.88;;;;;;;2.20;98.63;100676.47;5087358;28;20570;-61
2021/10/13 04:45:49;;;;;;;7.45;3.35;;;;;;;2.15;98.59;100681.16;5083615;28;20129;-60
2021/10/13 04:48:35;;;;;;;14.10;7.90;;;;;;;2.22;98.43;100677.25;5087714;28;20055;-61
2021/10/13 04:51:20;;;;;;;8.38;3.40;;;;;;;1.96;98.41;100684.75;5066735;28;20060;-60
2021/10/13 04:54:05;;;;;;;6.05;3.15;;;;;;;1.87;99.21;100679.06;5084554;28;20050;-63
2021/10/13 04:56:51;;;;;;;9.07;4.30;;;;;;;1.88;99.89;100680.78;5089894;28;20051;-60
2021/10/13 04:59:36;;;;;;;6.05;3.30;;;;;;;1.78;98.96;100675.13;5089440;28;20062;-61
2021/10/13 05:02:21;;;;;;;25.65;9.68;;;;;;;1.94;99.37;100685.78;5087152;28;20627;-59
2021/10/13 05:05:08;;;;;;;9.38;4.40;;;;;;;1.94;99.56;100686.63;5050239;28;20526;-61
2021/10/13 05:07:53;;;;;;;11.07;3.67;;;;;;;2.01;99.51;100685.38;5084161;28;20051;-62
2021/10/13 05:10:38;;;;;;;27.98;13.68;;;;;;;2.14;98.95;100687.41;5077214;28;20067;-61
2021/10/13 05:13:23;;;;;;;8.23;4.25;;;;;;;1.94;99.46;100680.47;5084170;28;20056;-63
2021/10/13 05:16:08;;;;;;;9.57;3.85;;;;;;;1.95;99.03;100687.47;5065387;28;20101;-62
2021/10/13 05:18:53;;;;;;;7.72;3.95;;;;;;;2.05;99.59;100688.72;5069259;28;20137;-58
2021/10/13 05:21:40;;;;;;;8.23;4.03;;;;;;;1.92;99.35;100692.94;5060639;28;20194;-62
2021/10/13 05:24:25;;;;;;;9.77;3.42;;;;;;;1.87;99.80;100694.94;5069371;28;20806;-61
2021/10/13 05:27:10;;;;;;;7.88;3.90;;;;;;;1.68;99.79;100695.03;5080404;28;20201;-58
2021/10/13 05:29:55;;;;;;;11.23;4.57;;;;;;;1.65;100.00;100696.03;5078380;28;20464;-60
2021/10/13 05:32:40;;;;;;;6.68;3.38;;;;;;;1.61;99.91;100706.84;5073020;28;20488;-60
2021/10/13 05:35:25;;;;;;;12.40;4.32;;;;;;;1.50;100.00;100698.59;5064946;28;20095;-59
2021/10/13 05:38:12;;;;;;;7.50;3.63;;;;;;;1.56;99.86;100707.09;5075431;28;20266;-61
2021/10/13 05:40:57;;;;;;;10.07;4.22;;;;;;;1.61;100.00;100714.78;5062654;28;20052;-61
2021/10/13 05:43:42;;;;;;;9.93;3.92;;;;;;;1.59;100.00;100711.34;5069166;28;20059;-61
2021/10/13 05:46:27;;;;;;;10.50;3.80;;;;;;;1.78;99.95;100712.16;5069264;28;20141;-58
2021/10/13 05:49:12;;;;;;;7.72;3.58;;;;;;;1.98;99.82;100719.94;5061976;28;20051;-61
2021/10/13 05:51:57;;;;;;;10.90;4.20;;;;;;;1.84;100.00;100716.28;5071822;28;20563;-55
2021/10/13 05:54:44;;;;;;;10.70;5.05;;;;;;;2.02;99.74;100724.16;5063246;28;20509;-58
2021/10/13 05:57:29;;;;;;;8.68;4.38;;;;;;;2.05;99.54;100726.66;5069699;28;21567;-58
2021/10/13 06:00:15;;;;;;;12.43;3.88;;;;;;;2.01;99.46;100733.03;5086351;28;20055;-63
2021/10/13 06:03:00;;;;;;;8.30;3.50;;;;;;;1.96;99.82;100737.69;5076066;28;20156;-60
2021/10/13 06:05:45;;;;;;;7.63;4.03;;;;;;;1.96;98.95;100745.63;5075564;28;20059;-56
2021/10/13 06:08:30;;;;;;;12.20;4.10;;;;;;;2.01;99.71;100748.94;5065797;28;20051;-58
2021/10/13 06:11:17;;;;;;;9.68;4.30;;;;;;;2.13;100.00;100757.16;5061898;28;20064;-58
2021/10/13 06:14:02;;;;;;;12.88;5.22;;;;;;;2.38;99.88;100754.97;5070636;28;20052;-62
2021/10/13 06:16:47;;;;;;;10.93;5.40;;;;;;;2.49;98.93;100767.69;5065529;28;20132;-59
2021/10/13 06:19:32;;;;;;;11.40;4.78;;;;;;;2.50;99.27;100767.59;5055925;28;20060;-58
2021/10/13 06:22:17;;;;;;;10.10;5.28;;;;;;;2.57;98.33;100771.63;5058122;28;20064;-58
2021/10/13 06:25:02;;;;;;;10.20;5.25;;;;;;;2.63;98.98;100763.34;5053492;28;20055;-60
2021/10/13 06:27:48;;;;;;;11.00;3.92;;;;;;;2.66;99.26;100764.97;5061037;28;20112;-58
2021/10/13 06:30:37;;;;;;;11.07;5.07;;;;;;;2.72;98.85;100779.69;5054648;28;20552;-59
2021/10/13 06:33:22;;;;;;;13.70;5.85;;;;;;;2.97;98.87;100781.91;5054586;28;20053;-57
2021/10/13 06:36:07;;;;;;;13.57;5.60;;;;;;;2.93;98.92;100782.06;5056082;28;20059;-59
2021/10/13 06:38:53;;;;;;;14.88;5.80;;;;;;;2.98;98.91;100791.59;5061316;28;20434;-62
2021/10/13 06:41:38;;;;;;;15.90;5.82;;;;;;;3.20;98.77;100793.00;5061913;28;20066;-58
2021/10/13 06:44:25;;;;;;;19.73;6.15;;;;;;;3.46;99.37;100799.50;5064103;28;20536;-60
2021/10/13 06:47:10;;;;;;;12.00;5.45;;;;;;;3.65;97.73;100798.44;5057666;28;20133;-60
2021/10/13 06:49:55;;;;;;;10.10;4.85;;;;;;;3.75;97.97;100797.00;5057308;28;20120;-58
2021/10/13 06:52:40;;;;;;;9.80;4.47;;;;;;;3.75;97.17;100799.66;5069294;28;20219;-59
2021/10/13 06:55:25;;;;;;;12.35;5.20;;;;;;;3.76;97.10;100798.69;5064013;28;20410;-60
2021/10/13 06:58:10;;;;;;;14.88;6.30;;;;;;;4.05;97.90;100807.66;5053172;28;20055;-57
2021/10/13 07:00:57;;;;;;;13.02;6.85;;;;;;;4.27;96.38;100813.44;5058600;28;20126;-61
2021/10/13 07:03:41;;;;;;;11.85;4.38;;;;;;;4.29;96.14;100810.69;5048753;28;20418;-60
2021/10/13 07:06:27;;;;;;;12.27;5.18;;;;;;;4.60;94.10;100815.03;5049710;28;20047;-62
2021/10/13 07:09:12;;;;;;;12.17;5.23;;;;;;;4.57;92.89;100817.88;5061300;28;20509;-59
2021/10/13 07:11:57;;;;;;;9.70;4.78;;;;;;;4.56;94.21;100808.19;5058272;28;20056;-60
2021/10/13 07:14:43;;;;;;;12.05;5.35;;;;;;;4.54;95.02;100815.41;5063709;28;20064;-61
2021/10/13 07:17:29;;;;;;;9.90;4.65;;;;;;;4.76;93.87;100822.94;5058542;28;20549;-57
2021/10/13 07:20:15;;;;;;;10.95;4.85;;;;;;;5.03;91.40;100813.28;5058632;28;20118;-60
2021/10/13 07:23:00;;;;;;;9.68;5.43;;;;;;;4.86;93.29;100816.97;5068618;28;20740;-57
2021/10/13 07:25:45;;;;;;;10.93;4.88;;;;;;;4.91;93.22;100822.84;5055877;28;20198;-58
2021/10/13 07:28:31;;;;;;;12.00;5.15;;;;;;;4.91;92.11;100819.34;5063059;28;20130;-60
2021/10/13 07:31:16;;;;;;;8.82;4.40;;;;;;;4.95;93.18;100832.34;5061804;28;20052;-58
2021/10/13 07:34:02;;;;;;;12.05;4.93;;;;;;;5.09;91.66;100830.63;5059985;28;20082;-58
2021/10/13 07:36:48;;;;;;;9.38;4.30;;;;;;;5.22;91.00;100829.81;5056654;28;20048;-60
2021/10/13 07:39:34;;;;;;;15.30;5.13;;;;;;;5.17;89.40;100834.53;5055088;28;20131;-62
2021/10/13 07:42:19;;;;;;;9.15;4.95;;;;;;;5.31;89.78;100828.34;5067160;28;20059;-60
2021/10/13 07:45:06;;;;;;;9.43;4.47;;;;;;;5.42;90.45;100841.84;5050951;28;20133;-62
2021/10/13 07:47:51;;;;;;;10.18;4.28;;;;;;;5.44;91.65;100834.63;5055289;28;20056;-60
2021/10/13 07:50:37;;;;;;;9.73;4.60;;;;;;;5.51;91.64;100838.63;5060548;28;20090;-61
2021/10/13 07:53:23;;;;;;;15.45;4.88;;;;;;;5.86;88.76;100844.34;5063271;28;20052;-66
2021/10/13 07:56:09;;;;;;;10.25;4.65;;;;;;;5.86;86.85;100835.50;5060959;28;20127;-63
2021/10/13 07:58:54;;;;;;;12.27;5.18;;;;;;;5.96;89.21;100841.13;5059627;28;20417;-60
2021/10/13 08:01:39;;;;;;;11.60;4.97;;;;;;;6.13;88.89;100844.38;5060823;28;23605;-63
2021/10/13 08:04:25;;;;;;;8.52;4.00;;;;;;;6.27;87.83;100842.59;5058468;28;20468;-62
2021/10/13 08:07:11;;;;;;;9.98;4.97;;;;;;;6.34;88.23;100846.56;5062453;28;20055;-60
2021/10/13 08:09:56;;;;;;;10.52;4.20;;;;;;;6.42;85.52;100845.13;5066726;28;20687;-59
2021/10/13 08:12:42;;;;;;;9.95;4.82;;;;;;;6.50;86.37;100849.91;5064974;28;20060;-59
2021/10/13 08:15:27;;;;;;;8.98;4.32;;;;;;;6.58;84.61;100850.25;5061055;28;20115;-63
2021/10/13 08:18:12;;;;;;;8.17;4.43;;;;;;;6.46;83.50;100856.41;5068918;28;20413;-59
2021/10/13 08:20:58;;;;;;;9.02;4.93;;;;;;;6.46;83.75;100845.75;5069182;28;20054;-61
2021/10/13 08:23:44;;;;;;;11.05;5.78;;;;;;;6.33;85.63;100850.19;5083069;28;20059;-59
2021/10/13 08:26:30;;;;;;;;;;;;;;;6.49;84.57;100860.69;5074952;28;20056;-60
2021/10/13 08:29:15;;;;;;;12.32;4.43;;;;;;;6.52;84.13;100865.84;5072614;28;19928;-59
2021/10/13 08:32:00;;;;;;;10.32;4.40;;;;;;;6.60;82.95;100864.34;5068662;28;20059;-61
2021/10/13 08:34:45;;;;;;;11.52;4.97;;;;;;;6.48;84.02;100867.84;5083183;28;20509;-58
2021/10/13 08:37:30;;;;;;;11.35;5.28;;;;;;;6.50;84.67;100879.25;5070525;28;20060;-59
2021/10/13 08:40:16;;;;;;;9.90;4.63;;;;;;;6.63;84.57;100885.50;5082610;28;20059;-60
2021/10/13 08:43:03;;;;;;;12.07;4.95;;;;;;;6.96;82.26;100885.00;5076491;28;20374;-60
2021/10/13 08:45:48;;;;;;;8.43;4.20;;;;;;;7.25;82.69;100882.97;5076164;28;20052;-61
2021/10/13 08:48:34;;;;;;;9.82;4.55;;;;;;;7.25;81.93;100884.81;5067398;28;20051;-60
2021/10/13 08:51:19;;;;;;;9.50;5.00;;;;;;;7.50;82.08;100883.91;5078365;28;20063;-55
2021/10/13 08:54:05;;;;;;;11.02;4.63;;;;;;;7.62;80.56;100883.03;5076044;28;20064;-60
2021/10/13 08:56:52;;;;;;;10.05;4.60;;;;;;;7.60;80.54;100891.19;5061821;28;20087;-58
2021/10/13 08:59:40;;;;;;;12.70;4.63;;;;;;;7.96;78.97;100884.16;5073466;28;20219;-59
2021/10/13 09:02:40;;;;;;;9.50;4.30;;;;;;;7.38;80.77;100896.31;5070921;28;20509;-60
2021/10/13 09:05:25;;;;;;;10.88;4.75;;;;;;;7.45;78.83;100904.75;5067019;28;20063;-63
2021/10/13 09:08:10;;;;;;;8.10;4.40;;;;;;;7.81;79.05;100911.97;5071728;28;20048;-60
2021/10/13 09:10:57;;;;;;;6.50;3.85;;;;;;;7.44;78.10;100900.38;5070290;28;20051;-61
2021/10/13 09:13:43;;;;;;;7.40;3.88;;;;;;;7.47;78.44;100894.84;5069321;28;20059;-61
2021/10/13 09:16:28;;;;;;;;;;;;;;;7.45;79.14;100894.06;5072455;28;20533;-60
2021/10/13 09:19:13;;;;;;;8.90;4.53;;;;;;;7.61;78.80;100900.03;5067134;28;20346;-59
2021/10/13 09:22:01;;;;;;;7.75;4.03;;;;;;;7.39;77.98;100907.88;5076134;28;20063;-59
2021/10/13 09:24:48;;;;;;;9.35;4.32;;;;;;;7.41;79.54;100913.94;5077699;28;20430;-63
2021/10/13 09:27:33;;;;;;;7.05;4.10;;;;;;;7.69;80.33;100902.16;5077772;28;20051;-59
2021/10/13 09:30:26;;;;;;;13.45;5.28;;;;;;;8.15;77.38;100900.53;5077577;28;20055;-57
2021/10/13 09:33:13;;;;;;;8.32;4.78;;;;;;;8.54;76.63;100901.25;5077428;28;20062;-62
2021/10/13 09:35:59;;;;;;;10.27;4.70;;;;;;;8.25;76.08;100916.75;5066851;28;20434;-57
2021/10/13 09:38:44;;;;;;;16.10;5.47;;;;;;;8.17;77.62;100911.13;5061273;28;20186;-60
2021/10/13 09:41:30;;;;;;;7.88;4.45;;;;;;;8.54;75.63;100908.44;5068032;28;20414;-58
2021/10/13 09:44:15;;;;;;;8.53;5.03;;;;;;;8.43;75.98;100909.25;5087458;28;20519;-62
2021/10/13 09:47:04;;;;;;;11.43;5.45;;;;;;;8.86;75.36;100911.34;5068132;28;20528;-59
2021/10/13 09:49:50;;;;;;;8.48;4.28;;;;;;;8.62;74.48;100914.03;5067709;28;20422;-59
2021/10/13 09:52:35;;;;;;;8.32;4.72;;;;;;;8.42;74.60;100915.56;5064945;28;20410;-61
2021/10/13 09:55:20;;;;;;;9.10;4.63;;;;;;;8.38;75.81;100916.72;5061851;28;20071;-62
2021/10/13 09:58:05;;;;;;;11.10;4.65;;;;;;;8.63;74.85;100915.75;5078236;28;20048;-61
2021/10/13 10:00:51;;;;;;;11.25;5.00;;;;;;;8.05;75.81;100912.88;5080594;28;20062;-61
2021/10/13 10:03:39;;;;;;;10.73;5.35;;;;;;;8.09;75.06;100926.88;5068605;28;20055;-57
2021/10/13 10:06:27;;;;;;;13.18;6.70;;;;;;;8.12;76.13;100921.28;5078578;28;20159;-58
2021/10/13 10:09:17;;;;;;;13.07;5.60;;;;;;;8.38;75.89;100922.09;5075082;28;20178;-58
2021/10/13 10:12:05;;;;;;;9.55;5.05;;;;;;;8.59;75.86;100920.50;5074867;28;20066;-59
2021/10/13 10:14:51;;;;;;;10.15;4.95;;;;;;;8.65;74.43;100922.72;5068628;28;20413;-55
2021/10/13 10:17:40;;;;;;;15.48;7.22;;;;;;;8.77;74.01;100923.63;5060816;28;20063;-57
2021/10/13 10:20:35;;;;;;;14.18;6.78;;;;;;;8.43;75.01;100915.44;5070007;28;20418;-62
2021/10/13 10:23:32;;;;;;;11.50;4.50;;;;;;;8.50;75.01;100919.34;5082780;28;20117;-60
2021/10/13 10:26:38;;;;;;;9.02;4.72;;;;;;;8.69;75.72;100910.81;5078554;28;20089;-59
2021/10/13 10:29:23;;;;;;;9.13;4.97;;;;;;;8.95;74.60;100908.81;5069999;28;20051;-61
2021/10/13 10:32:15;;;;;;;11.30;4.82;;;;;;;9.07;72.26;100905.19;5064134;28;20055;-56
2021/10/13 10:35:09;;;;;;;14.27;6.55;;;;;;;9.37;72.40;100914.50;5068749;28;20059;-62
2021/10/13 10:38:05;;;;;;;10.52;4.95;;;;;;;9.73;70.75;100904.53;5072823;28;20410;-61
2021/10/13 10:40:50;;;;;;;19.17;9.30;;;;;;;9.84;69.55;100909.88;5066777;28;20065;-60
2021/10/13 10:43:35;;;;;;;35.08;16.30;;;;;;;9.58;70.32;100912.78;5068577;28;20051;-61
2021/10/13 10:46:20;;;;;;;11.95;4.60;;;;;;;9.65;71.12;100908.66;5064860;28;20106;-57
2021/10/13 10:49:05;;;;;;;14.38;6.80;;;;;;;9.56;71.14;100905.84;5075165;28;20461;-63
2021/10/13 10:52:02;;;;;;;7.75;4.28;;;;;;;9.27;70.39;100906.34;5067888;28;20063;-60
2021/10/13 10:54:52;;;;;;;12.35;5.00;;;;;;;8.85;72.51;100907.81;5060285;28;20580;-60
2021/10/13 10:57:40;;;;;;;9.98;4.97;;;;;;;8.63;72.56;100910.41;5075767;28;20528;-61
2021/10/13 11:00:37;;;;;;;15.73;5.72;;;;;;;8.79;72.26;100913.66;5073628;28;20426;-62
2021/10/13 11:03:25;;;;;;;10.07;4.85;;;;;;;8.93;72.66;100916.13;5069995;28;20051;-60
2021/10/13 11:06:12;;;;;;;10.98;5.57;;;;;;;9.29;72.21;100919.59;5074634;28;20618;-59
2021/10/13 11:09:02;;;;;;;11.30;4.43;;;;;;;9.21;70.93;100914.84;5064782;28;20059;-59
2021/10/13 11:11:49;;;;;;;12.20;6.20;;;;;;;8.86;71.94;100914.88;5067546;28;20055;-62
2021/10/13 11:14:34;;;;;;;11.30;5.30;;;;;;;8.92;73.07;100918.91;5070696;28;20058;-56
2021/10/13 11:17:25;;;;;;;13.43;5.25;;;;;;;9.18;72.14;100920.44;5078071;28;20059;-61
2021/10/13 11:20:12;;;;;;;14.82;5.90;;;;;;;9.83;69.49;100918.91;5075259;28;20071;-57
2021/10/13 11:22:58;;;;;;;13.93;5.72;;;;;;;10.35;68.37;100912.00;5068515;28;20520;-66
2021/10/13 11:25:43;;;;;;;9.83;4.87;;;;;;;10.47;69.64;100917.22;5069550;28;20138;-60
2021/10/13 11:28:35;;;;;;;10.80;5.75;;;;;;;10.60;65.30;100918.88;5077329;28;20301;-62
2021/10/13 11:31:20;;;;;;;10.73;4.30;;;;;;;10.23;66.58;100912.03;5083829;28;20081;-59
2021/10/13 11:34:07;;;;;;;13.35;4.60;;;;;;;10.20;67.18;100912.28;5062431;28;20128;-64
2021/10/13 11:36:55;;;;;;;8.32;4.90;;;;;;;10.26;66.31;100910.94;5065429;28;20059;-58
2021/10/13 11:39:45;;;;;;;8.98;4.97;;;;;;;10.17;66.26;100900.91;5059516;28;20055;-59
2021/10/13 11:42:31;;;;;;;8.15;4.28;;;;;;;10.63;65.33;100910.56;5060948;28;20098;-62
2021/10/13 11:45:19;;;;;;;11.20;4.28;;;;;;;10.76;65.10;100903.19;5061601;28;20047;-58
2021/10/13 11:48:05;;;;;;;8.48;3.95;;;;;;;10.55;66.37;100911.22;5060896;28;20055;-60
2021/10/13 11:50:52;;;;;;;8.90;3.35;;;;;;;10.14;67.73;100907.38;5074014;28;20580;-62
2021/10/13 11:53:37;;;;;;;9.65;4.32;;;;;;;9.93;68.80;100911.81;5057955;28;20059;-63
2021/10/13 11:56:23;;;;;;;6.72;3.95;;;;;;;10.13;66.52;100908.38;5068546;28;20052;-62
2021/10/13 11:59:12;;;;;;;7.93;3.85;;;;;;;10.22;66.84;100910.34;5056416;28;20060;-61
2021/10/13 12:02:10;;;;;;;6.68;3.00;;;;;;;10.88;64.33;100906.66;5053105;28;20072;-65
2021/10/13 12:04:55;;;;;;;6.70;3.10;;;;;;;11.23;63.11;100906.34;5066090;28;20051;-61
2021/10/13 12:07:44;;;;;;;6.72;2.80;;;;;;;11.62;63.76;100899.34;5060732;28;20056;-61
2021/10/13 12:10:44;;;;;;;7.20;3.03;;;;;;;11.75;61.94;100893.72;5059794;28;20087;-61
2021/10/13 12:13:30;;;;;;;5.90;2.58;;;;;;;11.91;62.01;100892.25;5063486;28;20109;-59
2021/10/13 12:16:20;;;;;;;4.85;2.15;;;;;;;11.41;60.05;100902.91;5058899;28;20052;-61
2021/10/13 12:19:13;;;;;;;3.22;1.70;;;;;;;11.24;60.59;100900.81;5062776;28;20149;-60
2021/10/13 12:21:58;;;;;;;3.00;1.50;;;;;;;11.13;59.61;100900.94;5061040;28;20367;-62
2021/10/13 12:24:44;;;;;;;4.32;1.75;;;;;;;11.08;61.50;100895.06;5080028;28;20158;-63
2021/10/13 12:27:30;;;;;;;5.95;2.10;;;;;;;11.25;59.89;100894.50;5054170;28;20067;-59
2021/10/13 12:30:29;;;;;;;3.00;1.70;;;;;;;11.03;60.25;100895.47;5058311;28;20048;-58
2021/10/13 12:33:17;;;;;;;3.65;1.70;;;;;;;10.66;61.47;100902.28;5061614;28;20169;-61
2021/10/13 12:36:10;;;;;;;4.15;2.10;;;;;;;10.57;62.61;100901.22;5073458;28;20410;-61
2021/10/13 12:38:58;;;;;;;5.63;1.75;;;;;;;10.67;62.37;100894.09;5064173;28;20062;-60
2021/10/13 12:41:45;;;;;;;4.10;1.50;;;;;;;10.68;61.72;100893.09;5066713;28;20090;-60
2021/10/13 12:44:31;;;;;;;4.72;1.77;;;;;;;10.86;59.03;100896.06;5065172;28;20137;-61
2021/10/13 12:47:18;;;;;;;3.55;1.98;;;;;;;10.87;59.56;100904.97;5061702;28;20095;-60
2021/10/13 12:50:12;;;;;;;3.45;1.77;;;;;;;10.83;61.88;100902.53;5058385;28;20055;-64
2021/10/13 12:52:59;;;;;;;3.85;1.20;;;;;;;10.89;60.18;100903.84;5075459;28;20055;-59
2021/10/13 12:55:44;;;;;;;2.88;1.75;;;;;;;11.08;58.06;100897.75;5064581;28;20173;-60
2021/10/13 12:58:30;;;;;;;4.25;1.08;;;;;;;11.21;61.12;100903.78;5053289;28;20048;-60
2021/10/13 13:01:15;;;;;;;3.15;1.00;;;;;;;11.33;57.95;100904.56;5056002;28;20053;-60
2021/10/13 13:04:01;;;;;;;2.50;1.08;;;;;;;11.52;59.37;100904.66;5061339;28;20056;-60